Terminal Aerodrome Forecast
Issued by NWS Cleveland, OH

Home | Current Version | Previous Version | Graphics & Text | Print | Product List | Glossary On
Versions: 1 2 3 4 5 6 7 8 9 10 11 12 13 14 15 16 17
000
FTUS41 KCLE 291140
TAFCAK
TAF
KCAK 291140Z 2912/3012 03008KT 2SM BR BKN002 OVC007
      TEMPO 2912/2913 3/4SM BR OVC002
     FM291300 03006KT P6SM SCT025
     FM291500 01008KT P6SM SCT050
     FM300000 03003KT P6SM SCT250=

USA.gov is the U.S. government's official web portal to all federal, state and local government web resources and services.